sensor_id;sensor_type;location;lat;lon;timestamp;temperature;humidity
13256;DHT22;37913;48.370;10.930;2022-12-24T00:00:58;10.10;99.90
13256;DHT22;37913;48.370;10.930;2022-12-24T00:03:25;10.00;99.90
13256;DHT22;37913;48.370;10.930;2022-12-24T00:05:52;9.90;99.90
13256;DHT22;37913;48.370;10.930;2022-12-24T00:08:20;9.80;99.90
13256;DHT22;37913;48.370;10.930;2022-12-24T00:10:49;9.70;99.90
13256;DHT22;37913;48.370;10.930;2022-12-24T00:13:16;9.70;99.90
13256;DHT22;37913;48.370;10.930;2022-12-24T00:15:43;9.60;99.90
13256;DHT22;37913;48.370;10.930;2022-12-24T00:18:10;9.50;99.90
13256;DHT22;37913;48.370;10.930;2022-12-24T00:20:37;9.50;99.90
13256;DHT22;37913;48.370;10.930;2022-12-24T00:23:05;9.50;99.90
13256;DHT22;37913;48.370;10.930;2022-12-24T00:25:33;9.40;99.90
13256;DHT22;37913;48.370;10.930;2022-12-24T00:28:00;9.40;99.90
13256;DHT22;37913;48.370;10.930;2022-12-24T00:30:30;9.50;99.90
13256;DHT22;37913;48.370;10.930;2022-12-24T00:32:57;9.40;99.90
13256;DHT22;37913;48.370;10.930;2022-12-24T00:35:24;9.40;99.90
13256;DHT22;37913;48.370;10.930;2022-12-24T00:37:50;9.40;99.90
13256;DHT22;37913;48.370;10.930;2022-12-24T00:40:17;9.50;99.90
13256;DHT22;37913;48.370;10.930;2022-12-24T00:42:46;9.50;99.90
13256;DHT22;37913;48.370;10.930;2022-12-24T00:45:12;9.50;99.90
13256;DHT22;37913;48.370;10.930;2022-12-24T00:47:40;9.50;99.90
13256;DHT22;37913;48.370;10.930;2022-12-24T00:50:08;9.40;99.90
13256;DHT22;37913;48.370;10.930;2022-12-24T00:52:35;9.30;99.90
13256;DHT22;37913;48.370;10.930;2022-12-24T00:55:02;9.40;99.90
13256;DHT22;37913;48.370;10.930;2022-12-24T00:57:29;9.30;99.90
13256;DHT22;37913;48.370;10.930;2022-12-24T00:59:57;9.40;99.90
13256;DHT22;37913;48.370;10.930;2022-12-24T01:02:24;9.40;99.90
13256;DHT22;37913;48.370;10.930;2022-12-24T01:04:51;9.30;99.90
13256;DHT22;37913;48.370;10.930;2022-12-24T01:07:36;9.40;99.90
13256;DHT22;37913;48.370;10.930;2022-12-24T01:10:04;9.40;99.90
13256;DHT22;37913;48.370;10.930;2022-12-24T01:12:32;9.50;99.90
13256;DHT22;37913;48.370;10.930;2022-12-24T01:15:00;9.50;99.90
13256;DHT22;37913;48.370;10.930;2022-12-24T01:17:27;9.50;99.90
13256;DHT22;37913;48.370;10.930;2022-12-24T01:19:54;9.40;99.90
13256;DHT22;37913;48.370;10.930;2022-12-24T01:22:20;9.40;99.90
13256;DHT22;37913;48.370;10.930;2022-12-24T01:24:47;9.40;99.90
13256;DHT22;37913;48.370;10.930;2022-12-24T01:27:14;9.40;99.90
13256;DHT22;37913;48.370;10.930;2022-12-24T01:29:41;9.30;99.90
13256;DHT22;37913;48.370;10.930;2022-12-24T01:32:10;9.40;99.90
13256;DHT22;37913;48.370;10.930;2022-12-24T01:34:36;9.40;99.90
13256;DHT22;37913;48.370;10.930;2022-12-24T01:37:03;9.30;99.90
13256;DHT22;37913;48.370;10.930;2022-12-24T01:39:30;9.30;99.90
13256;DHT22;37913;48.370;10.930;2022-12-24T01:41:57;9.20;99.90
13256;DHT22;37913;48.370;10.930;2022-12-24T01:44:43;9.30;99.90
13256;DHT22;37913;48.370;10.930;2022-12-24T01:47:14;9.40;99.90
13256;DHT22;37913;48.370;10.930;2022-12-24T01:49:47;9.30;99.90
13256;DHT22;37913;48.370;10.930;2022-12-24T01:52:17;9.40;99.90
13256;DHT22;37913;48.370;10.930;2022-12-24T01:54:49;9.40;99.90
13256;DHT22;37913;48.370;10.930;2022-12-24T01:57:21;9.30;99.90
13256;DHT22;37913;48.370;10.930;2022-12-24T01:59:55;9.20;99.90
13256;DHT22;37913;48.370;10.930;2022-12-24T02:02:25;9.10;99.90
13256;DHT22;37913;48.370;10.930;2022-12-24T02:04:57;9.00;99.90
13256;DHT22;37913;48.370;10.930;2022-12-24T02:07:26;9.00;99.90
13256;DHT22;37913;48.370;10.930;2022-12-24T02:09:56;9.20;99.90
13256;DHT22;37913;48.370;10.930;2022-12-24T02:12:24;9.20;99.90
13256;DHT22;37913;48.370;10.930;2022-12-24T02:14:51;9.20;99.90
13256;DHT22;37913;48.370;10.930;2022-12-24T02:17:26;9.20;99.90
13256;DHT22;37913;48.370;10.930;2022-12-24T02:20:29;9.20;99.90
13256;DHT22;37913;48.370;10.930;2022-12-24T02:26:05;9.40;99.90
13256;DHT22;37913;48.370;10.930;2022-12-24T02:28:44;9.40;99.90
13256;DHT22;37913;48.370;10.930;2022-12-24T02:31:15;9.30;99.90
13256;DHT22;37913;48.370;10.930;2022-12-24T02:33:49;9.30;99.90
13256;DHT22;37913;48.370;10.930;2022-12-24T02:36:23;9.30;99.90
13256;DHT22;37913;48.370;10.930;2022-12-24T02:38:59;9.30;99.90
13256;DHT22;37913;48.370;10.930;2022-12-24T02:41:30;9.30;99.90
13256;DHT22;37913;48.370;10.930;2022-12-24T02:44:21;9.30;99.90
13256;DHT22;37913;48.370;10.930;2022-12-24T02:46:50;9.30;99.90
13256;DHT22;37913;48.370;10.930;2022-12-24T02:49:17;9.30;99.90
13256;DHT22;37913;48.370;10.930;2022-12-24T02:51:44;9.30;99.90
13256;DHT22;37913;48.370;10.930;2022-12-24T02:54:12;9.50;99.90
13256;DHT22;37913;48.370;10.930;2022-12-24T02:56:54;9.30;99.90
13256;DHT22;37913;48.370;10.930;2022-12-24T02:59:42;9.40;99.90
13256;DHT22;37913;48.370;10.930;2022-12-24T03:02:19;9.30;99.90
13256;DHT22;37913;48.370;10.930;2022-12-24T03:04:55;9.50;99.90
13256;DHT22;37913;48.370;10.930;2022-12-24T03:07:35;9.60;99.90
13256;DHT22;37913;48.370;10.930;2022-12-24T03:10:13;9.60;99.90
13256;DHT22;37913;48.370;10.930;2022-12-24T03:12:46;9.70;99.90
13256;DHT22;37913;48.370;10.930;2022-12-24T03:15:19;9.60;99.90
13256;DHT22;37913;48.370;10.930;2022-12-24T03:17:49;9.50;99.90
13256;DHT22;37913;48.370;10.930;2022-12-24T03:20:20;9.60;99.90
13256;DHT22;37913;48.370;10.930;2022-12-24T03:22:48;9.70;99.90
13256;DHT22;37913;48.370;10.930;2022-12-24T03:25:15;9.60;99.90
13256;DHT22;37913;48.370;10.930;2022-12-24T03:27:42;9.60;99.90
13256;DHT22;37913;48.370;10.930;2022-12-24T03:30:12;9.50;99.90
13256;DHT22;37913;48.370;10.930;2022-12-24T03:32:40;9.50;99.90
13256;DHT22;37913;48.370;10.930;2022-12-24T03:35:09;9.80;99.90
13256;DHT22;37913;48.370;10.930;2022-12-24T03:37:37;9.90;99.90
13256;DHT22;37913;48.370;10.930;2022-12-24T03:40:05;9.70;99.90
13256;DHT22;37913;48.370;10.930;2022-12-24T03:42:32;9.50;99.90
13256;DHT22;37913;48.370;10.930;2022-12-24T03:44:59;9.60;99.90
13256;DHT22;37913;48.370;10.930;2022-12-24T03:47:26;9.60;99.90
13256;DHT22;37913;48.370;10.930;2022-12-24T03:49:53;9.60;99.90
13256;DHT22;37913;48.370;10.930;2022-12-24T03:52:21;9.70;99.90
13256;DHT22;37913;48.370;10.930;2022-12-24T03:54:48;9.60;99.90
13256;DHT22;37913;48.370;10.930;2022-12-24T03:57:15;9.70;99.90
13256;DHT22;37913;48.370;10.930;2022-12-24T03:59:43;9.70;99.90
13256;DHT22;37913;48.370;10.930;2022-12-24T04:02:10;9.60;99.90
13256;DHT22;37913;48.370;10.930;2022-12-24T04:04:36;9.60;99.90
13256;DHT22;37913;48.370;10.930;2022-12-24T04:07:04;9.60;99.90
13256;DHT22;37913;48.370;10.930;2022-12-24T04:09:32;9.60;99.90
13256;DHT22;37913;48.370;10.930;2022-12-24T04:11:59;9.70;99.90
13256;DHT22;37913;48.370;10.930;2022-12-24T04:14:26;9.70;99.90
13256;DHT22;37913;48.370;10.930;2022-12-24T04:16:53;9.60;99.90
13256;DHT22;37913;48.370;10.930;2022-12-24T04:19:20;9.60;99.90
13256;DHT22;37913;48.370;10.930;2022-12-24T04:21:47;9.50;99.90
13256;DHT22;37913;48.370;10.930;2022-12-24T04:24:14;9.50;99.90
13256;DHT22;37913;48.370;10.930;2022-12-24T04:26:42;9.50;99.90
13256;DHT22;37913;48.370;10.930;2022-12-24T04:29:09;9.50;99.90
13256;DHT22;37913;48.370;10.930;2022-12-24T04:31:36;9.50;99.90
13256;DHT22;37913;48.370;10.930;2022-12-24T04:34:03;9.40;99.90
13256;DHT22;37913;48.370;10.930;2022-12-24T04:36:30;9.40;99.90
13256;DHT22;37913;48.370;10.930;2022-12-24T04:38:57;9.40;99.90
13256;DHT22;37913;48.370;10.930;2022-12-24T04:41:24;9.40;99.90
13256;DHT22;37913;48.370;10.930;2022-12-24T04:43:53;9.40;99.90
13256;DHT22;37913;48.370;10.930;2022-12-24T04:46:22;9.40;99.90
13256;DHT22;37913;48.370;10.930;2022-12-24T04:48:51;9.30;99.90
13256;DHT22;37913;48.370;10.930;2022-12-24T04:51:18;9.30;99.90
13256;DHT22;37913;48.370;10.930;2022-12-24T04:53:46;9.30;99.90
13256;DHT22;37913;48.370;10.930;2022-12-24T04:56:15;9.30;99.90
13256;DHT22;37913;48.370;10.930;2022-12-24T04:58:42;9.30;99.90
13256;DHT22;37913;48.370;10.930;2022-12-24T05:01:12;9.20;99.90
13256;DHT22;37913;48.370;10.930;2022-12-24T05:03:39;9.10;99.90
13256;DHT22;37913;48.370;10.930;2022-12-24T05:06:10;9.10;99.90
13256;DHT22;37913;48.370;10.930;2022-12-24T05:08:37;9.10;99.90
13256;DHT22;37913;48.370;10.930;2022-12-24T05:11:05;9.20;99.90
13256;DHT22;37913;48.370;10.930;2022-12-24T05:13:32;9.20;99.90
13256;DHT22;37913;48.370;10.930;2022-12-24T05:15:59;9.10;99.90
13256;DHT22;37913;48.370;10.930;2022-12-24T05:18:27;9.10;99.90
13256;DHT22;37913;48.370;10.930;2022-12-24T05:20:54;9.10;99.90
13256;DHT22;37913;48.370;10.930;2022-12-24T05:23:23;9.00;99.90
13256;DHT22;37913;48.370;10.930;2022-12-24T05:26:14;9.00;99.90
13256;DHT22;37913;48.370;10.930;2022-12-24T05:28:47;9.10;99.90
13256;DHT22;37913;48.370;10.930;2022-12-24T05:31:14;9.10;99.90
13256;DHT22;37913;48.370;10.930;2022-12-24T05:33:43;9.00;99.90
13256;DHT22;37913;48.370;10.930;2022-12-24T05:36:10;8.90;99.90
13256;DHT22;37913;48.370;10.930;2022-12-24T05:38:37;8.80;99.90
13256;DHT22;37913;48.370;10.930;2022-12-24T05:41:04;8.80;99.90
13256;DHT22;37913;48.370;10.930;2022-12-24T05:43:31;8.70;99.90
13256;DHT22;37913;48.370;10.930;2022-12-24T05:45:59;8.70;99.90
13256;DHT22;37913;48.370;10.930;2022-12-24T05:48:26;8.60;99.90
13256;DHT22;37913;48.370;10.930;2022-12-24T05:50:55;8.60;99.90
13256;DHT22;37913;48.370;10.930;2022-12-24T05:53:22;8.50;99.90
13256;DHT22;37913;48.370;10.930;2022-12-24T05:55:48;8.50;99.90
13256;DHT22;37913;48.370;10.930;2022-12-24T05:58:15;8.50;99.90
13256;DHT22;37913;48.370;10.930;2022-12-24T06:00:42;8.50;99.90
13256;DHT22;37913;48.370;10.930;2022-12-24T06:03:09;9.50;99.90
13256;DHT22;37913;48.370;10.930;2022-12-24T06:05:36;8.50;99.90
13256;DHT22;37913;48.370;10.930;2022-12-24T06:08:07;8.50;99.90
13256;DHT22;37913;48.370;10.930;2022-12-24T06:10:34;8.50;99.90
13256;DHT22;37913;48.370;10.930;2022-12-24T06:13:01;8.60;99.90
13256;DHT22;37913;48.370;10.930;2022-12-24T06:15:28;8.60;99.90
13256;DHT22;37913;48.370;10.930;2022-12-24T06:17:55;8.50;99.90
13256;DHT22;37913;48.370;10.930;2022-12-24T06:20:22;8.60;99.90
13256;DHT22;37913;48.370;10.930;2022-12-24T06:22:48;8.50;99.90
13256;DHT22;37913;48.370;10.930;2022-12-24T06:25:17;8.40;99.90
13256;DHT22;37913;48.370;10.930;2022-12-24T06:27:43;8.40;99.90
13256;DHT22;37913;48.370;10.930;2022-12-24T06:30:11;8.40;99.90
13256;DHT22;37913;48.370;10.930;2022-12-24T06:32:38;8.50;99.90
13256;DHT22;37913;48.370;10.930;2022-12-24T06:35:05;8.60;99.90
13256;DHT22;37913;48.370;10.930;2022-12-24T06:37:32;8.60;99.90
13256;DHT22;37913;48.370;10.930;2022-12-24T06:40:01;8.60;99.90
13256;DHT22;37913;48.370;10.930;2022-12-24T06:42:29;8.60;99.90
13256;DHT22;37913;48.370;10.930;2022-12-24T06:44:57;8.60;99.90
13256;DHT22;37913;48.370;10.930;2022-12-24T06:47:24;8.70;99.90
13256;DHT22;37913;48.370;10.930;2022-12-24T06:49:51;8.60;99.90
13256;DHT22;37913;48.370;10.930;2022-12-24T06:52:18;8.50;99.90
13256;DHT22;37913;48.370;10.930;2022-12-24T06:54:44;8.60;99.90
13256;DHT22;37913;48.370;10.930;2022-12-24T06:57:11;8.60;99.90
13256;DHT22;37913;48.370;10.930;2022-12-24T06:59:40;8.60;99.90
13256;DHT22;37913;48.370;10.930;2022-12-24T07:02:08;8.70;99.90
13256;DHT22;37913;48.370;10.930;2022-12-24T07:04:35;8.70;99.90
13256;DHT22;37913;48.370;10.930;2022-12-24T07:07:02;8.70;99.90
13256;DHT22;37913;48.370;10.930;2022-12-24T07:09:29;8.90;99.90
13256;DHT22;37913;48.370;10.930;2022-12-24T07:11:56;8.90;99.90
13256;DHT22;37913;48.370;10.930;2022-12-24T07:14:25;8.90;99.90
13256;DHT22;37913;48.370;10.930;2022-12-24T07:16:54;8.80;99.90
13256;DHT22;37913;48.370;10.930;2022-12-24T07:19:21;8.80;99.90
13256;DHT22;37913;48.370;10.930;2022-12-24T07:21:48;8.80;99.90
13256;DHT22;37913;48.370;10.930;2022-12-24T07:24:15;8.90;99.90
13256;DHT22;37913;48.370;10.930;2022-12-24T07:26:43;8.90;99.90
13256;DHT22;37913;48.370;10.930;2022-12-24T07:29:09;9.00;99.90
13256;DHT22;37913;48.370;10.930;2022-12-24T07:31:36;9.10;99.90
13256;DHT22;37913;48.370;10.930;2022-12-24T07:34:06;9.00;99.90
13256;DHT22;37913;48.370;10.930;2022-12-24T07:36:33;9.20;99.90
13256;DHT22;37913;48.370;10.930;2022-12-24T07:39:00;9.20;99.90
13256;DHT22;37913;48.370;10.930;2022-12-24T07:41:27;9.20;99.90
13256;DHT22;37913;48.370;10.930;2022-12-24T07:43:54;9.10;99.90
13256;DHT22;37913;48.370;10.930;2022-12-24T07:46:21;9.30;99.90
13256;DHT22;37913;48.370;10.930;2022-12-24T07:48:48;9.30;99.90
13256;DHT22;37913;48.370;10.930;2022-12-24T07:51:16;9.20;99.90
13256;DHT22;37913;48.370;10.930;2022-12-24T07:53:43;9.30;99.90
13256;DHT22;37913;48.370;10.930;2022-12-24T07:56:12;9.30;99.90
13256;DHT22;37913;48.370;10.930;2022-12-24T07:58:50;9.40;99.90
13256;DHT22;37913;48.370;10.930;2022-12-24T08:01:18;9.50;99.90
13256;DHT22;37913;48.370;10.930;2022-12-24T08:03:46;9.50;99.90
13256;DHT22;37913;48.370;10.930;2022-12-24T08:06:13;9.50;99.90
13256;DHT22;37913;48.370;10.930;2022-12-24T08:08:41;9.50;99.90
13256;DHT22;37913;48.370;10.930;2022-12-24T08:11:08;9.50;99.90
13256;DHT22;37913;48.370;10.930;2022-12-24T08:13:35;9.50;99.90
13256;DHT22;37913;48.370;10.930;2022-12-24T08:16:03;9.60;99.90
13256;DHT22;37913;48.370;10.930;2022-12-24T08:18:31;9.60;99.90
13256;DHT22;37913;48.370;10.930;2022-12-24T08:20:58;9.60;99.90
13256;DHT22;37913;48.370;10.930;2022-12-24T08:23:25;9.60;99.90
13256;DHT22;37913;48.370;10.930;2022-12-24T08:25:53;9.60;99.90
13256;DHT22;37913;48.370;10.930;2022-12-24T08:28:20;9.60;99.90
13256;DHT22;37913;48.370;10.930;2022-12-24T08:30:48;9.50;99.90
13256;DHT22;37913;48.370;10.930;2022-12-24T08:33:15;9.60;99.90
13256;DHT22;37913;48.370;10.930;2022-12-24T08:35:46;9.80;99.90
13256;DHT22;37913;48.370;10.930;2022-12-24T08:38:13;9.80;99.90
13256;DHT22;37913;48.370;10.930;2022-12-24T08:40:41;9.80;99.90
13256;DHT22;37913;48.370;10.930;2022-12-24T08:43:09;9.80;99.90
13256;DHT22;37913;48.370;10.930;2022-12-24T08:45:38;9.80;28.60
13256;DHT22;37913;48.370;10.930;2022-12-24T08:48:05;9.80;1.00
13256;DHT22;37913;48.370;10.930;2022-12-24T08:50:32;9.80;1.00
13256;DHT22;37913;48.370;10.930;2022-12-24T08:52:59;9.90;33.50
13256;DHT22;37913;48.370;10.930;2022-12-24T08:55:26;9.90;1.00
13256;DHT22;37913;48.370;10.930;2022-12-24T08:57:53;10.10;1.00
13256;DHT22;37913;48.370;10.930;2022-12-24T09:00:21;10.10;1.00
13256;DHT22;37913;48.370;10.930;2022-12-24T09:02:48;10.10;1.00
13256;DHT22;37913;48.370;10.930;2022-12-24T09:05:15;10.10;1.00
13256;DHT22;37913;48.370;10.930;2022-12-24T09:07:42;10.20;99.90
13256;DHT22;37913;48.370;10.930;2022-12-24T09:10:10;10.30;99.90
13256;DHT22;37913;48.370;10.930;2022-12-24T09:12:37;10.30;1.00
13256;DHT22;37913;48.370;10.930;2022-12-24T09:15:10;10.20;1.00
13256;DHT22;37913;48.370;10.930;2022-12-24T09:17:40;10.20;1.00
13256;DHT22;37913;48.370;10.930;2022-12-24T09:20:08;10.10;1.00
13256;DHT22;37913;48.370;10.930;2022-12-24T09:22:36;10.00;1.00
13256;DHT22;37913;48.370;10.930;2022-12-24T09:25:04;10.10;99.90
13256;DHT22;37913;48.370;10.930;2022-12-24T09:27:33;10.20;1.00
13256;DHT22;37913;48.370;10.930;2022-12-24T09:30:00;10.10;99.90
13256;DHT22;37913;48.370;10.930;2022-12-24T09:32:27;10.10;99.90
13256;DHT22;37913;48.370;10.930;2022-12-24T09:34:56;10.00;99.90
13256;DHT22;37913;48.370;10.930;2022-12-24T09:37:23;10.00;1.00
13256;DHT22;37913;48.370;10.930;2022-12-24T09:39:50;10.10;1.00
13256;DHT22;37913;48.370;10.930;2022-12-24T09:42:26;10.00;99.90
13256;DHT22;37913;48.370;10.930;2022-12-24T09:45:01;10.10;1.00
13256;DHT22;37913;48.370;10.930;2022-12-24T09:47:33;10.20;1.00
13256;DHT22;37913;48.370;10.930;2022-12-24T09:50:21;10.30;99.90
13256;DHT22;37913;48.370;10.930;2022-12-24T09:52:51;10.30;1.00
13256;DHT22;37913;48.370;10.930;2022-12-24T09:55:24;10.30;99.90
13256;DHT22;37913;48.370;10.930;2022-12-24T09:57:53;10.50;99.90
13256;DHT22;37913;48.370;10.930;2022-12-24T10:00:23;11.60;99.90
13256;DHT22;37913;48.370;10.930;2022-12-24T10:02:51;12.50;1.00
13256;DHT22;37913;48.370;10.930;2022-12-24T10:05:28;13.30;1.00
13256;DHT22;37913;48.370;10.930;2022-12-24T10:08:08;13.80;1.00
13256;DHT22;37913;48.370;10.930;2022-12-24T10:10:41;14.90;1.00
13256;DHT22;37913;48.370;10.930;2022-12-24T10:13:22;14.80;1.00
13256;DHT22;37913;48.370;10.930;2022-12-24T10:15:57;13.80;99.90
13256;DHT22;37913;48.370;10.930;2022-12-24T10:18:31;13.30;99.90
13256;DHT22;37913;48.370;10.930;2022-12-24T10:21:08;12.60;99.90
13256;DHT22;37913;48.370;10.930;2022-12-24T10:23:41;13.10;99.90
13256;DHT22;37913;48.370;10.930;2022-12-24T10:26:15;13.40;99.90
13256;DHT22;37913;48.370;10.930;2022-12-24T10:28:46;13.50;99.90
13256;DHT22;37913;48.370;10.930;2022-12-24T10:31:14;14.20;99.90
13256;DHT22;37913;48.370;10.930;2022-12-24T10:33:43;14.40;99.90
13256;DHT22;37913;48.370;10.930;2022-12-24T10:36:16;13.50;99.90
13256;DHT22;37913;48.370;10.930;2022-12-24T10:38:44;13.20;99.90
13256;DHT22;37913;48.370;10.930;2022-12-24T10:41:12;12.00;99.90
13256;DHT22;37913;48.370;10.930;2022-12-24T10:43:40;12.20;99.90
13256;DHT22;37913;48.370;10.930;2022-12-24T10:46:17;13.30;99.90
13256;DHT22;37913;48.370;10.930;2022-12-24T10:48:50;14.80;99.90
13256;DHT22;37913;48.370;10.930;2022-12-24T10:51:23;14.60;99.90
13256;DHT22;37913;48.370;10.930;2022-12-24T10:53:56;12.80;92.30
13256;DHT22;37913;48.370;10.930;2022-12-24T10:56:25;12.70;99.90
13256;DHT22;37913;48.370;10.930;2022-12-24T10:58:53;12.50;99.90
13256;DHT22;37913;48.370;10.930;2022-12-24T11:01:41;12.40;99.90
13256;DHT22;37913;48.370;10.930;2022-12-24T11:04:14;13.20;99.90
13256;DHT22;37913;48.370;10.930;2022-12-24T11:06:51;13.90;45.60
13256;DHT22;37913;48.370;10.930;2022-12-24T11:09:21;14.10;47.50
13256;DHT22;37913;48.370;10.930;2022-12-24T11:11:48;15.30;3.30
13256;DHT22;37913;48.370;10.930;2022-12-24T11:14:17;14.20;1.00
13256;DHT22;37913;48.370;10.930;2022-12-24T11:16:51;15.80;1.00
13256;DHT22;37913;48.370;10.930;2022-12-24T11:19:21;16.50;1.00
13256;DHT22;37913;48.370;10.930;2022-12-24T11:21:57;16.50;1.00
13256;DHT22;37913;48.370;10.930;2022-12-24T11:24:26;15.30;1.00
13256;DHT22;37913;48.370;10.930;2022-12-24T11:26:54;15.00;1.00
13256;DHT22;37913;48.370;10.930;2022-12-24T11:29:41;13.50;1.00
13256;DHT22;37913;48.370;10.930;2022-12-24T11:32:16;13.20;1.00
13256;DHT22;37913;48.370;10.930;2022-12-24T11:34:43;14.80;1.00
13256;DHT22;37913;48.370;10.930;2022-12-24T11:37:16;15.10;1.00
13256;DHT22;37913;48.370;10.930;2022-12-24T11:39:47;14.80;1.00
13256;DHT22;37913;48.370;10.930;2022-12-24T11:42:29;16.10;1.00
13256;DHT22;37913;48.370;10.930;2022-12-24T11:44:58;17.40;1.00
13256;DHT22;37913;48.370;10.930;2022-12-24T11:47:33;16.80;1.00
13256;DHT22;37913;48.370;10.930;2022-12-24T11:50:20;14.70;1.00
13256;DHT22;37913;48.370;10.930;2022-12-24T11:52:54;13.90;1.00
13256;DHT22;37913;48.370;10.930;2022-12-24T11:55:32;12.80;1.00
13256;DHT22;37913;48.370;10.930;2022-12-24T11:58:03;12.70;1.00
13256;DHT22;37913;48.370;10.930;2022-12-24T12:00:31;12.20;1.00
13256;DHT22;37913;48.370;10.930;2022-12-24T12:03:00;12.20;1.00
13256;DHT22;37913;48.370;10.930;2022-12-24T12:05:32;12.30;1.00
13256;DHT22;37913;48.370;10.930;2022-12-24T12:08:09;12.40;1.00
13256;DHT22;37913;48.370;10.930;2022-12-24T12:10:38;12.00;1.00
13256;DHT22;37913;48.370;10.930;2022-12-24T12:13:12;12.00;8.30
13256;DHT22;37913;48.370;10.930;2022-12-24T12:15:42;11.80;99.90
13256;DHT22;37913;48.370;10.930;2022-12-24T12:18:13;11.70;99.90
13256;DHT22;37913;48.370;10.930;2022-12-24T12:20:44;10.70;99.90
13256;DHT22;37913;48.370;10.930;2022-12-24T12:23:18;13.50;1.00
13256;DHT22;37913;48.370;10.930;2022-12-24T12:25:51;15.20;1.00
13256;DHT22;37913;48.370;10.930;2022-12-24T12:28:22;16.90;1.00
13256;DHT22;37913;48.370;10.930;2022-12-24T12:31:01;16.40;1.00
13256;DHT22;37913;48.370;10.930;2022-12-24T12:33:32;18.00;1.00
13256;DHT22;37913;48.370;10.930;2022-12-24T12:36:04;19.50;1.00
13256;DHT22;37913;48.370;10.930;2022-12-24T12:38:35;20.70;1.00
13256;DHT22;37913;48.370;10.930;2022-12-24T12:41:23;22.00;1.00
13256;DHT22;37913;48.370;10.930;2022-12-24T12:47:02;19.40;1.00
13256;DHT22;37913;48.370;10.930;2022-12-24T12:49:38;21.90;1.00
13256;DHT22;37913;48.370;10.930;2022-12-24T12:52:16;21.60;1.00
13256;DHT22;37913;48.370;10.930;2022-12-24T12:54:53;19.50;1.00
13256;DHT22;37913;48.370;10.930;2022-12-24T12:57:30;22.40;1.00
13256;DHT22;37913;48.370;10.930;2022-12-24T13:00:01;22.90;1.00
13256;DHT22;37913;48.370;10.930;2022-12-24T13:02:47;22.40;1.00
13256;DHT22;37913;48.370;10.930;2022-12-24T13:08:41;19.00;1.00
13256;DHT22;37913;48.370;10.930;2022-12-24T13:11:38;20.10;1.00
13256;DHT22;37913;48.370;10.930;2022-12-24T13:17:32;16.10;1.00
13256;DHT22;37913;48.370;10.930;2022-12-24T13:20:20;16.20;1.00
13256;DHT22;37913;48.370;10.930;2022-12-24T13:22:55;15.80;1.00
13256;DHT22;37913;48.370;10.930;2022-12-24T13:25:26;13.50;1.00
13256;DHT22;37913;48.370;10.930;2022-12-24T13:28:09;13.60;1.00
13256;DHT22;37913;48.370;10.930;2022-12-24T13:30:40;14.00;1.00
13256;DHT22;37913;48.370;10.930;2022-12-24T13:33:09;13.70;1.00
13256;DHT22;37913;48.370;10.930;2022-12-24T13:35:56;12.70;1.00
13256;DHT22;37913;48.370;10.930;2022-12-24T13:38:42;12.30;1.00
13256;DHT22;37913;48.370;10.930;2022-12-24T13:41:38;12.40;1.00
13256;DHT22;37913;48.370;10.930;2022-12-24T13:44:24;12.60;1.00
13256;DHT22;37913;48.370;10.930;2022-12-24T13:47:15;13.80;1.00
13256;DHT22;37913;48.370;10.930;2022-12-24T13:49:48;14.00;1.00
13256;DHT22;37913;48.370;10.930;2022-12-24T13:52:23;14.00;1.00
13256;DHT22;37913;48.370;10.930;2022-12-24T13:55:12;13.00;1.00
13256;DHT22;37913;48.370;10.930;2022-12-24T13:57:50;12.20;1.00
13256;DHT22;37913;48.370;10.930;2022-12-24T14:03:22;11.30;88.80
13256;DHT22;37913;48.370;10.930;2022-12-24T14:05:58;11.00;99.90
13256;DHT22;37913;48.370;10.930;2022-12-24T14:08:31;10.90;1.00
13256;DHT22;37913;48.370;10.930;2022-12-24T14:11:04;10.60;1.00
13256;DHT22;37913;48.370;10.930;2022-12-24T14:16:45;10.40;99.90
13256;DHT22;37913;48.370;10.930;2022-12-24T14:19:15;10.40;99.90
13256;DHT22;37913;48.370;10.930;2022-12-24T14:21:51;10.10;1.00
13256;DHT22;37913;48.370;10.930;2022-12-24T14:24:21;10.20;1.00
13256;DHT22;37913;48.370;10.930;2022-12-24T14:26:52;10.40;1.00
13256;DHT22;37913;48.370;10.930;2022-12-24T14:29:25;10.30;1.00
13256;DHT22;37913;48.370;10.930;2022-12-24T14:31:58;10.40;99.90
13256;DHT22;37913;48.370;10.930;2022-12-24T14:34:28;10.00;99.90
13256;DHT22;37913;48.370;10.930;2022-12-24T14:36:57;9.80;1.00
13256;DHT22;37913;48.370;10.930;2022-12-24T14:39:31;9.90;1.00
13256;DHT22;37913;48.370;10.930;2022-12-24T14:42:06;9.90;1.00
13256;DHT22;37913;48.370;10.930;2022-12-24T14:44:43;9.70;74.90
13256;DHT22;37913;48.370;10.930;2022-12-24T14:47:22;9.90;1.00
13256;DHT22;37913;48.370;10.930;2022-12-24T14:50:17;9.70;1.00
13256;DHT22;37913;48.370;10.930;2022-12-24T14:52:54;9.70;1.00
13256;DHT22;37913;48.370;10.930;2022-12-24T14:55:28;9.70;1.00
13256;DHT22;37913;48.370;10.930;2022-12-24T14:58:15;9.50;1.00
13256;DHT22;37913;48.370;10.930;2022-12-24T15:00:44;9.40;99.90
13256;DHT22;37913;48.370;10.930;2022-12-24T15:03:14;9.30;94.60
13256;DHT22;37913;48.370;10.930;2022-12-24T15:05:42;9.30;1.00
13256;DHT22;37913;48.370;10.930;2022-12-24T15:08:13;9.20;99.90
13256;DHT22;37913;48.370;10.930;2022-12-24T15:10:42;9.20;1.00
13256;DHT22;37913;48.370;10.930;2022-12-24T15:13:18;9.10;99.90
13256;DHT22;37913;48.370;10.930;2022-12-24T15:15:49;9.10;1.00
13256;DHT22;37913;48.370;10.930;2022-12-24T15:18:20;9.00;1.00
13256;DHT22;37913;48.370;10.930;2022-12-24T15:20:51;8.90;1.00
13256;DHT22;37913;48.370;10.930;2022-12-24T15:23:21;8.90;99.90
13256;DHT22;37913;48.370;10.930;2022-12-24T15:26:08;8.80;99.90
13256;DHT22;37913;48.370;10.930;2022-12-24T15:28:41;8.70;99.90
13256;DHT22;37913;48.370;10.930;2022-12-24T15:31:11;8.80;99.90
13256;DHT22;37913;48.370;10.930;2022-12-24T15:33:43;8.80;99.90
13256;DHT22;37913;48.370;10.930;2022-12-24T15:36:12;8.90;99.90
13256;DHT22;37913;48.370;10.930;2022-12-24T15:38:42;8.90;99.90
13256;DHT22;37913;48.370;10.930;2022-12-24T15:41:17;8.80;99.90
13256;DHT22;37913;48.370;10.930;2022-12-24T15:43:46;8.90;99.90
13256;DHT22;37913;48.370;10.930;2022-12-24T15:46:19;8.90;99.90
13256;DHT22;37913;48.370;10.930;2022-12-24T15:48:48;8.90;1.00
13256;DHT22;37913;48.370;10.930;2022-12-24T15:51:22;8.60;99.90
13256;DHT22;37913;48.370;10.930;2022-12-24T15:53:53;8.90;99.90
13256;DHT22;37913;48.370;10.930;2022-12-24T15:56:34;8.70;99.90
13256;DHT22;37913;48.370;10.930;2022-12-24T15:59:27;8.70;1.00
13256;DHT22;37913;48.370;10.930;2022-12-24T16:01:56;8.60;1.00
13256;DHT22;37913;48.370;10.930;2022-12-24T16:04:44;8.60;1.00
13256;DHT22;37913;48.370;10.930;2022-12-24T16:07:23;8.00;1.00
13256;DHT22;37913;48.370;10.930;2022-12-24T16:09:50;8.60;1.00
13256;DHT22;37913;48.370;10.930;2022-12-24T16:12:22;8.60;99.90